Time;durP1;ratioP1;P1;durP2;ratioP2;P2;SDS_P1;SDS_P2;PMS_P1;PMS_P2;Temp;Humidity;BMP_temperature;BMP_pressure;BME280_temperature;BME280_humidity;BME280_pressure;Samples;Min_cycle;Max_cycle;Signal;HPM_P1;HPM_P2
2021/06/17 00:06:18;;;;;;;16.80;12.70;;;21.90;61.20;;;;;;20864458;28;20490;-21
2021/06/17 00:16:19;;;;;;;19.63;13.52;;;22.00;61.30;;;;;;20869887;28;20044;-21
2021/06/17 00:26:20;;;;;;;15.68;14.02;;;22.00;61.30;;;;;;20901947;28;20477;-21
2021/06/17 00:36:20;;;;;;;14.35;12.57;;;22.00;61.30;;;;;;20869755;28;20493;-21
2021/06/17 00:46:21;;;;;;;15.00;12.27;;;21.90;61.30;;;;;;20836031;28;20116;-20
2021/06/17 00:56:23;;;;;;;16.55;13.45;;;22.00;61.40;;;;;;20890594;28;20097;-20
2021/06/17 01:06:23;;;;;;;13.93;12.48;;;22.00;61.30;;;;;;20869144;28;20022;-20
2021/06/17 01:16:33;;;;;;;13.75;11.50;;;22.00;61.40;;;;;;20853897;28;20039;-20
2021/06/17 01:27:17;;;;;;;13.90;12.25;;;22.00;61.40;;;;;;20866062;28;20033;-20
2021/06/17 01:37:22;;;;;;;13.05;11.80;;;21.90;61.30;;;;;;20869804;28;20029;-19
2021/06/17 01:47:25;;;;;;;13.60;11.50;;;22.00;61.30;;;;;;20872836;28;20117;-20
2021/06/17 01:57:28;;;;;;;12.65;11.48;;;21.90;61.30;;;;;;20876374;28;20025;-19
2021/06/17 02:07:29;;;;;;;12.52;10.88;;;22.00;61.30;;;;;;20868782;28;20033;-20
2021/06/17 02:17:30;;;;;;;11.43;10.30;;;21.90;61.40;;;;;;20860757;28;20053;-20
2021/06/17 02:27:32;;;;;;;14.00;10.75;;;21.90;61.30;;;;;;20849251;28;20048;-20
2021/06/17 02:37:35;;;;;;;12.70;11.57;;;22.00;61.30;;;;;;20857114;28;20063;-20
2021/06/17 02:47:37;;;;;;;17.27;11.13;;;21.90;61.20;;;;;;20883192;28;20108;-20
2021/06/17 02:57:52;;;;;;;10.23;9.23;;;22.00;61.90;;;;;;20872671;28;20100;-20
2021/06/17 03:08:26;;;;;;;14.27;10.27;;;21.90;62.60;;;;;;20880963;28;20040;-21
2021/06/17 03:18:29;;;;;;;13.48;9.93;;;21.90;62.70;;;;;;20868633;28;20086;-20
2021/06/17 03:28:31;;;;;;;10.38;9.43;;;21.90;63.50;;;;;;20860897;28;20474;-21
2021/06/17 03:38:33;;;;;;;9.02;8.13;;;21.90;63.50;;;;;;20868385;28;20443;-21
2021/06/17 03:48:34;;;;;;;10.55;9.23;;;21.90;63.40;;;;;;20900090;23;20127;-20
2021/06/17 03:58:35;;;;;;;11.40;8.77;;;21.90;63.80;;;;;;20877770;28;20030;-19
2021/06/17 04:08:42;;;;;;;10.25;8.70;;;21.90;64.10;;;;;;20825802;28;20040;-19
2021/06/17 04:18:46;;;;;;;9.48;8.55;;;22.00;64.30;;;;;;20829504;28;20053;-20
2021/06/17 04:28:48;;;;;;;9.50;8.60;;;21.90;63.90;;;;;;20828199;28;20026;-20
2021/06/17 04:38:49;;;;;;;11.18;8.52;;;22.00;64.10;;;;;;20826212;28;20029;-20
2021/06/17 04:48:52;;;;;;;8.70;7.57;;;21.90;64.10;;;;;;20827261;28;20386;-20
2021/06/17 04:58:53;;;;;;;8.65;7.85;;;21.90;64.20;;;;;;20823158;28;20047;-20
2021/06/17 05:19:14;;;;;;;14.52;8.05;;;21.90;64.60;;;;;;20793689;28;20038;-20
2021/06/17 05:29:15;;;;;;;9.85;8.50;;;22.00;65.60;;;;;;20804986;28;20042;-21
2021/06/17 05:39:16;;;;;;;11.02;9.93;;;21.90;65.60;;;;;;20808825;28;20026;-20
2021/06/17 05:49:16;;;;;;;13.47;8.73;;;22.00;66.30;;;;;;20812718;28;20042;-20
2021/06/17 05:59:18;;;;;;;21.77;9.75;;;22.00;66.40;;;;;;20819219;28;20464;-20
2021/06/17 06:09:19;;;;;;;62.58;20.77;;;22.10;66.70;;;;;;20801973;28;20083;-20
2021/06/17 06:19:20;;;;;;;36.75;18.52;;;22.20;67.20;;;;;;20824955;28;20401;-19
2021/06/17 06:29:20;;;;;;;42.30;16.83;;;22.20;66.90;;;;;;20830286;28;20021;-20
2021/06/17 06:39:21;;;;;;;30.35;15.07;;;22.20;66.60;;;;;;20832854;28;20025;-19
2021/06/17 06:49:22;;;;;;;26.65;14.25;;;22.20;66.20;;;;;;20834377;28;20113;-22
2021/06/17 06:59:22;;;;;;;35.65;14.05;;;22.20;66.00;;;;;;20831994;28;20052;-19
2021/06/17 07:09:23;;;;;;;27.98;14.27;;;22.20;65.60;;;;;;20828725;28;20040;-20
2021/06/17 07:19:24;;;;;;;21.73;13.68;;;22.20;65.70;;;;;;20826842;28;20104;-21
2021/06/17 07:29:25;;;;;;;27.63;14.70;;;22.20;65.50;;;;;;20825716;28;20057;-19
2021/06/17 07:39:25;;;;;;;28.73;12.55;;;22.40;65.90;;;;;;20824877;28;20052;-19
2021/06/17 07:49:29;;;;;;;34.77;14.80;;;22.40;65.60;;;;;;20826208;28;20030;-21
2021/06/17 07:59:29;;;;;;;78.82;17.60;;;22.40;65.40;;;;;;20822357;28;20037;-20
2021/06/17 08:09:30;;;;;;;61.63;14.90;;;22.50;64.40;;;;;;20825402;28;20029;-20
2021/06/17 08:19:31;;;;;;;40.97;12.02;;;22.40;64.40;;;;;;20822192;28;20483;-20
2021/06/17 08:29:32;;;;;;;38.58;12.98;;;22.40;64.40;;;;;;20820870;28;20159;-20
2021/06/17 08:39:35;;;;;;;39.70;13.38;;;22.50;64.30;;;;;;20830088;28;20087;-20
2021/06/17 08:49:36;;;;;;;33.95;11.88;;;22.50;64.30;;;;;;20820006;28;20045;-20
2021/06/17 08:59:40;;;;;;;31.80;12.77;;;22.60;64.40;;;;;;20817438;28;20032;-20
2021/06/17 09:09:46;;;;;;;28.85;12.02;;;22.60;64.20;;;;;;20818493;28;20034;-20
2021/06/17 09:19:51;;;;;;;23.17;12.15;;;22.60;64.20;;;;;;20818208;28;20029;-20
2021/06/17 09:29:56;;;;;;;23.83;11.50;;;22.60;64.20;;;;;;20792945;28;20047;-20
2021/06/17 09:39:58;;;;;;;18.58;11.38;;;22.70;64.00;;;;;;20807226;28;20133;-20
2021/06/17 09:50:00;;;;;;;25.45;11.68;;;22.60;64.00;;;;;;20815456;28;20045;-21
2021/06/17 10:00:12;;;;;;;23.95;10.75;;;22.70;63.80;;;;;;20816370;28;20056;-20
2021/06/17 10:10:14;;;;;;;13.40;10.00;;;22.80;63.80;;;;;;20818827;28;20034;-19
2021/06/17 10:20:15;;;;;;;16.42;10.52;;;22.70;63.60;;;;;;20817531;28;20449;-19
2021/06/17 10:30:16;;;;;;;16.10;9.82;;;22.80;63.50;;;;;;20820090;28;20028;-21
2021/06/17 10:40:22;;;;;;;13.88;9.48;;;22.80;63.50;;;;;;20800727;28;20037;-19
2021/06/17 10:50:37;;;;;;;14.98;9.27;;;22.90;63.50;;;;;;20814107;28;20037;-20
2021/06/17 11:00:47;;;;;;;15.65;10.27;;;22.90;63.50;;;;;;20773756;28;20574;-20
2021/06/17 11:10:59;;;;;;;12.38;8.00;;;22.90;63.40;;;;;;20827801;28;20033;-20
2021/06/17 11:21:00;;;;;;;12.30;9.23;;;22.90;63.40;;;;;;20831307;28;20080;-20
2021/06/17 11:31:01;;;;;;;15.57;8.65;;;23.00;63.30;;;;;;20826521;28;20030;-20
2021/06/17 11:41:34;;;;;;;14.00;8.48;;;23.00;63.40;;;;;;20791757;28;20552;-20
2021/06/17 11:51:40;;;;;;;17.15;8.38;;;23.00;63.20;;;;;;20656935;28;20054;-21
2021/06/17 12:02:14;;;;;;;12.80;8.85;;;23.00;63.10;;;;;;20638620;28;20038;-20
2021/06/17 12:12:24;;;;;;;16.30;9.48;;;23.10;63.30;;;;;;20649463;28;20050;-20
2021/06/17 12:22:26;;;;;;;12.43;8.80;;;23.10;63.60;;;;;;20720257;28;20037;-20
2021/06/17 12:32:35;;;;;;;18.05;10.45;;;23.10;63.80;;;;;;20822972;28;20037;-20
2021/06/17 12:42:36;;;;;;;10.85;7.57;;;23.10;63.80;;;;;;20820970;28;20033;-20
2021/06/17 12:52:37;;;;;;;15.27;8.80;;;23.10;63.70;;;;;;20819799;28;20044;-19
2021/06/17 13:02:43;;;;;;;11.80;8.35;;;23.10;63.60;;;;;;20819119;28;20037;-19
2021/06/17 13:12:45;;;;;;;11.90;8.27;;;23.10;63.50;;;;;;20817732;28;20044;-20
2021/06/17 13:22:58;;;;;;;9.65;7.97;;;23.10;63.50;;;;;;20817865;28;20103;-20
2021/06/17 13:33:02;;;;;;;12.18;7.47;;;23.10;63.40;;;;;;20819352;28;20026;-21
2021/06/17 13:43:02;;;;;;;10.02;7.28;;;23.10;63.40;;;;;;20815809;28;20417;-20
2021/06/17 13:53:06;;;;;;;11.75;7.40;;;23.10;63.40;;;;;;20816546;28;20116;-22
2021/06/17 14:03:09;;;;;;;8.52;7.47;;;23.00;63.10;;;;;;20818905;28;20578;-20
2021/06/17 14:13:10;;;;;;;9.25;7.40;;;23.10;63.10;;;;;;20817085;28;20505;-21
2021/06/17 14:23:11;;;;;;;9.03;7.23;;;23.10;63.00;;;;;;20815978;28;20405;-20
2021/06/17 14:33:12;;;;;;;10.30;6.93;;;23.10;62.90;;;;;;20823257;28;20488;-20
2021/06/17 14:43:13;;;;;;;9.07;6.47;;;23.10;62.90;;;;;;20838659;28;20039;-20
2021/06/17 14:53:14;;;;;;;9.38;6.60;;;23.10;62.70;;;;;;20833903;28;20056;-19
2021/06/17 15:03:14;;;;;;;9.50;6.63;;;23.10;62.70;;;;;;20834752;28;20072;-21
2021/06/17 15:13:15;;;;;;;6.43;5.72;;;23.10;62.60;;;;;;20833669;28;20497;-21
2021/06/17 15:23:16;;;;;;;8.88;6.50;;;23.10;62.50;;;;;;20832046;28;20054;-20
2021/06/17 15:33:16;;;;;;;7.68;6.07;;;23.10;62.40;;;;;;20830989;28;20481;-20
2021/06/17 15:43:17;;;;;;;6.40;5.35;;;23.10;62.30;;;;;;20829590;28;20096;-20
2021/06/17 15:53:17;;;;;;;11.65;6.07;;;23.20;62.20;;;;;;20806369;28;20040;-20
2021/06/17 16:03:18;;;;;;;8.77;5.57;;;23.30;61.90;;;;;;20828448;28;20417;-20
2021/06/17 16:13:21;;;;;;;8.70;6.32;;;23.40;61.70;;;;;;20826045;28;20029;-19
2021/06/17 16:23:21;;;;;;;8.40;5.65;;;23.50;61.90;;;;;;20812401;28;20030;-21
2021/06/17 16:33:22;;;;;;;7.03;5.85;;;23.60;61.20;;;;;;20825363;28;20024;-20
2021/06/17 16:43:23;;;;;;;7.35;5.13;;;23.60;61.10;;;;;;20795948;23;20629;-20
2021/06/17 16:53:24;;;;;;;9.95;5.25;;;23.70;61.00;;;;;;20797091;28;20026;-21
2021/06/17 17:03:24;;;;;;;6.77;5.20;;;23.70;60.70;;;;;;20824147;28;20033;-20
2021/06/17 17:13:26;;;;;;;8.82;5.40;;;23.70;60.60;;;;;;20799310;28;20026;-21
2021/06/17 17:23:28;;;;;;;9.32;6.30;;;23.70;60.80;;;;;;20810149;28;20132;-20
2021/06/17 17:33:29;;;;;;;14.25;7.70;;;23.80;60.90;;;;;;20810684;28;20029;-21
2021/06/17 17:43:29;;;;;;;16.67;9.80;;;23.70;60.90;;;;;;20804339;28;20552;-21
2021/06/17 17:53:30;;;;;;;14.90;8.55;;;23.70;61.20;;;;;;20789941;28;20112;-21
2021/06/17 18:03:31;;;;;;;15.25;8.30;;;23.60;61.30;;;;;;20811921;28;20038;-21
2021/06/17 18:13:33;;;;;;;16.55;10.15;;;23.60;61.40;;;;;;20818897;28;20033;-21
2021/06/17 18:23:34;;;;;;;15.43;7.82;;;23.50;61.40;;;;;;20826934;28;20113;-21
2021/06/17 18:33:35;;;;;;;16.45;7.70;;;23.50;61.40;;;;;;20837091;28;20456;-20
2021/06/17 18:43:35;;;;;;;11.07;7.68;;;23.50;61.40;;;;;;20835486;28;20516;-21
2021/06/17 18:53:36;;;;;;;18.17;7.77;;;23.50;61.70;;;;;;20832837;28;20557;-21
2021/06/17 19:03:36;;;;;;;12.17;6.93;;;23.40;61.90;;;;;;20833766;28;20483;-21
2021/06/17 19:13:37;;;;;;;15.18;7.60;;;23.40;61.90;;;;;;20832638;28;20463;-21
2021/06/17 19:23:38;;;;;;;11.68;7.38;;;23.40;61.80;;;;;;20832323;28;20375;-21
2021/06/17 19:33:39;;;;;;;12.68;6.88;;;23.40;61.90;;;;;;20830764;28;20049;-21
2021/06/17 19:43:40;;;;;;;12.90;7.13;;;23.40;62.00;;;;;;20830690;28;20439;-21
2021/06/17 19:53:42;;;;;;;13.60;6.95;;;23.40;62.00;;;;;;20830032;28;20548;-20
2021/06/17 20:03:42;;;;;;;9.20;6.82;;;23.30;62.00;;;;;;20829441;28;20026;-20
2021/06/17 20:13:43;;;;;;;11.88;6.13;;;23.30;62.00;;;;;;20827662;28;20053;-21
2021/06/17 20:23:43;;;;;;;12.85;6.57;;;23.30;62.00;;;;;;20826472;28;20037;-21
2021/06/17 20:33:44;;;;;;;9.80;5.55;;;23.30;62.20;;;;;;20825751;28;20057;-21
2021/06/17 20:43:45;;;;;;;10.18;6.03;;;23.30;62.20;;;;;;20825950;28;20033;-21
2021/06/17 20:53:45;;;;;;;9.02;5.68;;;23.30;62.40;;;;;;20827440;28;20037;-20
2021/06/17 21:03:46;;;;;;;18.73;7.07;;;23.30;62.50;;;;;;20816787;28;20418;-20
2021/06/17 21:13:46;;;;;;;15.02;6.63;;;23.30;65.30;;;;;;20752679;28;20030;-22
2021/06/17 21:23:47;;;;;;;15.90;7.15;;;23.30;64.50;;;;;;20818182;28;20021;-22
2021/06/17 21:33:48;;;;;;;20.73;7.30;;;23.30;65.20;;;;;;20818654;28;20111;-21
2021/06/17 21:43:48;;;;;;;14.48;6.75;;;23.30;64.90;;;;;;20812407;28;20128;-21
2021/06/17 21:53:49;;;;;;;12.68;5.88;;;23.30;64.60;;;;;;20830302;28;20033;-21
2021/06/17 22:03:50;;;;;;;17.48;6.72;;;23.30;64.50;;;;;;20825663;28;20025;-20
2021/06/17 22:13:50;;;;;;;12.93;7.00;;;23.30;64.40;;;;;;20811454;28;20030;-21
2021/06/17 22:23:51;;;;;;;10.43;6.10;;;23.30;64.30;;;;;;20789964;28;20033;-21
2021/06/17 22:33:52;;;;;;;12.90;6.60;;;23.30;64.10;;;;;;20808474;28;20062;-21
2021/06/17 22:43:52;;;;;;;10.73;5.97;;;23.30;64.00;;;;;;20812743;28;20079;-21
2021/06/17 22:53:53;;;;;;;10.15;6.88;;;23.30;63.90;;;;;;20817747;28;20490;-21
2021/06/17 23:03:56;;;;;;;10.80;6.20;;;23.20;63.90;;;;;;20789993;28;20042;-19
2021/06/17 23:13:56;;;;;;;9.98;4.82;;;23.30;64.30;;;;;;20816335;28;20482;-20
2021/06/17 23:23:57;;;;;;;10.23;5.45;;;23.30;63.80;;;;;;20810641;28;20033;-20
2021/06/17 23:33:57;;;;;;;7.82;4.68;;;23.30;63.90;;;;;;20823593;28;20033;-20
2021/06/17 23:43:58;;;;;;;12.13;5.40;;;23.30;63.80;;;;;;20819648;28;20535;-20
2021/06/17 23:53:58;;;;;;;12.13;5.35;;;23.30;63.90;;;;;;20820080;28;20042;-21
